createdAt,value
2023-05-02T00:01:58.993Z,101365.78
2023-05-02T00:04:25.822Z,101360.38
2023-05-02T00:06:55.411Z,101352.69
2023-05-02T00:09:22.023Z,101356.25
2023-05-02T00:11:49.117Z,101350.31
2023-05-02T00:14:15.808Z,101365.41
2023-05-02T00:16:42.293Z,101356.84
2023-05-02T00:19:08.799Z,101351.91
2023-05-02T00:21:35.215Z,101370.50
2023-05-02T00:24:01.693Z,101367.38
2023-05-02T00:26:28.855Z,101355.91
2023-05-02T00:28:55.272Z,101350.63
2023-05-02T00:31:22.076Z,101353.28
2023-05-02T00:33:48.703Z,101370.50
2023-05-02T00:36:19.075Z,101363.44
2023-05-02T00:38:46.077Z,101370.00
2023-05-02T00:41:12.548Z,101372.44
2023-05-02T00:43:42.046Z,101374.44
2023-05-02T00:46:08.643Z,101383.00
2023-05-02T00:48:36.232Z,101382.69
2023-05-02T00:51:04.989Z,101385.31
2023-05-02T00:53:32.239Z,101381.19
2023-05-02T00:55:59.487Z,101387.28
2023-05-02T00:58:27.096Z,101382.53
2023-05-02T01:00:59.917Z,101368.41
2023-05-02T01:03:51.140Z,101384.81
2023-05-02T01:06:48.456Z,101389.25
2023-05-02T01:09:39.529Z,101382.47
2023-05-02T01:12:21.293Z,101373.94
2023-05-02T01:14:54.238Z,101381.84
2023-05-02T01:17:24.712Z,101377.38
2023-05-02T01:19:55.006Z,101390.00
2023-05-02T01:22:23.171Z,101393.09
2023-05-02T01:25:14.688Z,101380.47
2023-05-02T01:28:02.925Z,101387.69
2023-05-02T01:30:33.218Z,101391.78
2023-05-02T01:33:03.254Z,101393.38
2023-05-02T01:35:32.764Z,101381.72
2023-05-02T01:38:01.253Z,101399.00
2023-05-02T01:40:29.805Z,101401.09
2023-05-02T01:42:59.378Z,101400.63
2023-05-02T01:45:26.424Z,101411.63
2023-05-02T01:47:54.639Z,101407.97
2023-05-02T01:50:24.621Z,101399.47
2023-05-02T01:52:53.352Z,101389.25
2023-05-02T01:55:20.726Z,101411.41
2023-05-02T01:57:50.402Z,101410.78
2023-05-02T02:00:18.554Z,101417.47
2023-05-02T02:02:46.690Z,101413.91
2023-05-02T02:05:14.547Z,101423.22
2023-05-02T02:07:41.100Z,101395.47
2023-05-02T02:10:08.193Z,101422.59
2023-05-02T02:12:43.870Z,101437.84
2023-05-02T02:15:25.744Z,101428.13
2023-05-02T02:18:05.452Z,101428.66
2023-05-02T02:20:32.757Z,101438.16
2023-05-02T02:23:03.243Z,101429.00
2023-05-02T02:25:29.813Z,101431.91
2023-05-02T02:27:57.135Z,101423.19
2023-05-02T02:30:23.656Z,101442.25
2023-05-02T02:32:50.256Z,101444.03
2023-05-02T02:35:17.018Z,101422.66
2023-05-02T02:38:02.676Z,101443.97
2023-05-02T02:40:42.160Z,101435.19
2023-05-02T02:43:24.507Z,101450.16
2023-05-02T02:46:09.825Z,101448.19
2023-05-02T02:48:45.753Z,101434.00
2023-05-02T02:51:28.709Z,101434.53
2023-05-02T02:54:26.423Z,101446.91
2023-05-02T02:57:18.734Z,101428.59
2023-05-02T03:00:02.862Z,101453.25
2023-05-02T03:02:32.872Z,101466.59
2023-05-02T03:05:01.205Z,101469.50
2023-05-02T03:07:28.850Z,101457.69
2023-05-02T03:09:55.358Z,101455.22
2023-05-02T03:12:22.142Z,101471.31
2023-05-02T03:14:48.669Z,101466.94
2023-05-02T03:17:15.205Z,101483.56
2023-05-02T03:19:41.645Z,101476.91
2023-05-02T03:22:08.038Z,101487.53
2023-05-02T03:24:34.484Z,101477.72
2023-05-02T03:27:00.958Z,101474.91
2023-05-02T03:29:28.809Z,101466.53
2023-05-02T03:31:55.428Z,101488.19
2023-05-02T03:34:22.320Z,101474.91
2023-05-02T03:36:49.154Z,101491.84
2023-05-02T03:39:15.768Z,101486.63
2023-05-02T03:41:43.781Z,101495.81
2023-05-02T03:44:10.321Z,101498.28
2023-05-02T03:46:36.773Z,101503.69
2023-05-02T03:49:03.280Z,101521.09
2023-05-02T03:51:29.710Z,101510.88
2023-05-02T03:53:56.493Z,101524.47
2023-05-02T03:56:23.123Z,101538.38
2023-05-02T03:58:49.628Z,101537.72
2023-05-02T04:01:16.593Z,101540.53
2023-05-02T04:03:43.548Z,101538.13
2023-05-02T04:06:10.438Z,101535.97
2023-05-02T04:08:37.104Z,101540.38
2023-05-02T04:11:03.942Z,101548.78
2023-05-02T04:13:30.460Z,101563.03
2023-05-02T04:15:56.877Z,101573.34
2023-05-02T04:18:23.881Z,101549.34
2023-05-02T04:20:50.699Z,101570.53
2023-05-02T04:23:17.603Z,101571.63
2023-05-02T04:25:54.541Z,101571.38
2023-05-02T04:28:22.238Z,101571.78
2023-05-02T04:30:52.101Z,101567.81
2023-05-02T04:33:18.862Z,101577.47
2023-05-02T04:35:45.504Z,101578.66
2023-05-02T04:38:12.133Z,101587.06
2023-05-02T04:40:39.066Z,101577.31
2023-05-02T04:43:05.788Z,101594.38
2023-05-02T04:45:32.646Z,101589.41
2023-05-02T04:47:59.374Z,101604.47
2023-05-02T04:50:28.147Z,101611.53
2023-05-02T04:52:54.663Z,101611.66
2023-05-02T04:55:21.286Z,101620.47
2023-05-02T04:57:47.744Z,101627.88
2023-05-02T05:00:14.680Z,101621.75
2023-05-02T05:02:41.207Z,101641.72
2023-05-02T05:05:08.046Z,101634.56
2023-05-02T05:07:34.609Z,101626.03
2023-05-02T05:10:01.726Z,101628.78
2023-05-02T05:12:28.451Z,101641.56
2023-05-02T05:14:54.903Z,101619.84
2023-05-02T05:17:21.526Z,101626.00
2023-05-02T05:19:48.001Z,101652.66
2023-05-02T05:22:15.531Z,101651.75
2023-05-02T05:24:41.977Z,101648.75
2023-05-02T05:27:08.478Z,101667.63
2023-05-02T05:45:41.836Z,101732.09
2023-05-02T05:48:08.358Z,101740.34
2023-05-02T05:50:34.877Z,101748.47
2023-05-02T05:53:01.393Z,101757.09
2023-05-02T05:55:28.167Z,101763.25
2023-05-02T05:57:54.603Z,101762.00
2023-05-02T06:00:21.021Z,101773.41
2023-05-02T06:02:47.606Z,101773.22
2023-05-02T06:05:14.276Z,101783.78
2023-05-02T06:07:41.052Z,101781.03
2023-05-02T06:10:09.482Z,101785.84
2023-05-02T06:12:36.104Z,101787.66
2023-05-02T06:15:02.638Z,101801.75
2023-05-02T06:17:29.093Z,101800.13
2023-05-02T06:19:55.503Z,101798.06
2023-05-02T06:22:21.952Z,101790.25
2023-05-02T06:24:48.360Z,101815.00
2023-05-02T06:27:14.796Z,101813.22
2023-05-02T06:29:41.225Z,101808.16
2023-05-02T06:32:07.818Z,101816.00
2023-05-02T06:34:34.299Z,101831.81
2023-05-02T06:37:00.868Z,101839.66
2023-05-02T06:39:27.302Z,101832.94
2023-05-02T06:41:58.305Z,101848.75
2023-05-02T06:44:25.346Z,101846.25
2023-05-02T06:46:51.924Z,101858.63
2023-05-02T06:49:18.353Z,101857.13
2023-05-02T06:51:44.813Z,101852.16
2023-05-02T06:54:11.502Z,101871.28
2023-05-02T06:56:37.987Z,101873.72
2023-05-02T06:59:05.251Z,101882.69
2023-05-02T07:01:31.839Z,101890.09
2023-05-02T07:03:58.361Z,101886.03
2023-05-02T07:06:25.034Z,101891.53
2023-05-02T07:08:51.613Z,101899.63
2023-05-02T07:11:18.446Z,101913.84
2023-05-02T07:13:44.901Z,101917.22
2023-05-02T07:16:11.491Z,101906.78
2023-05-02T07:18:37.933Z,101910.56
2023-05-02T07:21:04.916Z,101929.03
2023-05-02T07:23:31.508Z,101926.88
2023-05-02T07:25:57.949Z,101933.59
2023-05-02T07:28:24.512Z,101928.09
2023-05-02T07:30:50.948Z,101943.25
2023-05-02T07:33:17.460Z,101943.25
2023-05-02T07:35:43.974Z,101949.97
2023-05-02T07:38:10.636Z,101950.50
2023-05-02T07:40:37.235Z,101950.78
2023-05-02T07:43:03.682Z,101948.16
2023-05-02T07:45:30.187Z,101957.53
2023-05-02T07:47:56.658Z,101961.13
2023-05-02T07:50:23.932Z,101948.22
2023-05-02T07:52:50.466Z,101962.53
2023-05-02T07:55:16.912Z,101965.28
2023-05-02T07:57:43.445Z,101952.34
2023-05-02T08:00:10.504Z,101973.00
2023-05-02T08:02:37.406Z,101962.94
2023-05-02T08:05:04.505Z,101965.38
2023-05-02T08:07:32.320Z,101958.47
2023-05-02T08:09:59.106Z,101963.09
2023-05-02T08:12:25.668Z,101951.53
2023-05-02T08:14:52.055Z,101970.88
2023-05-02T08:17:18.475Z,101970.81
2023-05-02T08:19:45.091Z,101975.72
2023-05-02T08:22:11.591Z,101981.97
2023-05-02T08:24:38.248Z,101987.13
2023-05-02T08:27:04.639Z,101980.16
2023-05-02T08:29:31.530Z,101984.66
2023-05-02T08:31:58.253Z,101981.72
2023-05-02T08:34:24.825Z,101995.59
2023-05-02T08:36:51.212Z,101984.78
2023-05-02T08:39:17.801Z,101986.47
2023-05-02T08:41:44.859Z,101990.06
2023-05-02T08:44:12.158Z,101994.91
2023-05-02T08:46:41.607Z,102004.75
2023-05-02T08:49:10.352Z,101983.59
2023-05-02T08:51:39.349Z,102007.97
2023-05-02T08:54:10.206Z,102016.50
2023-05-02T08:56:37.975Z,102011.03
2023-05-02T08:59:04.398Z,102010.94
2023-05-02T09:01:31.496Z,102014.75
2023-05-02T09:03:59.205Z,102022.44
2023-05-02T09:06:27.228Z,102029.69
2023-05-02T09:08:55.271Z,102031.16
2023-05-02T09:11:22.125Z,102034.38
2023-05-02T09:13:49.758Z,102045.94
2023-05-02T09:16:17.246Z,102050.91
2023-05-02T09:18:48.317Z,102049.22
2023-05-02T09:21:21.281Z,102045.16
2023-05-02T09:23:55.944Z,102057.78
2023-05-02T09:26:31.053Z,102066.81
2023-05-02T09:28:59.478Z,102073.72
2023-05-02T09:31:49.733Z,102062.50
2023-05-02T09:34:17.514Z,102072.22
2023-05-02T09:36:46.134Z,102071.34
2023-05-02T09:39:20.174Z,102081.03
2023-05-02T09:41:48.386Z,102069.88
2023-05-02T09:44:20.153Z,102081.50
2023-05-02T09:46:54.355Z,102069.09
2023-05-02T09:49:40.090Z,102078.34
2023-05-02T09:52:17.562Z,102079.69
2023-05-02T09:54:46.468Z,102094.00
2023-05-02T09:57:13.473Z,102098.72
2023-05-02T09:59:41.158Z,102098.59
2023-05-02T10:02:12.090Z,102103.03
2023-05-02T10:04:39.416Z,102105.88
2023-05-02T10:07:10.320Z,102122.63
2023-05-02T10:09:39.925Z,102118.75
2023-05-02T10:12:08.200Z,102106.88
2023-05-02T10:14:45.716Z,102124.81
2023-05-02T10:17:15.873Z,102117.84
2023-05-02T10:19:53.977Z,102122.53
2023-05-02T10:22:21.769Z,102118.94
2023-05-02T10:24:49.902Z,102112.63
2023-05-02T10:27:16.708Z,102098.66
2023-05-02T10:29:44.666Z,102112.75
2023-05-02T10:32:12.930Z,102081.75
2023-05-02T10:34:41.808Z,102088.41
2023-05-02T10:37:36.828Z,102127.22
2023-05-02T10:40:02.018Z,102094.03
2023-05-02T10:42:30.015Z,102077.22
2023-05-02T10:44:56.664Z,102117.66
2023-05-02T10:47:25.091Z,102110.41
2023-05-02T10:50:00.639Z,102116.50
2023-05-02T10:52:33.188Z,102117.63
2023-05-02T10:55:21.978Z,102126.72
2023-05-02T10:57:57.535Z,102147.28
2023-05-02T11:00:30.079Z,102130.28
2023-05-02T11:02:56.849Z,102135.56
2023-05-02T11:05:24.617Z,102131.09
2023-05-02T11:08:21.238Z,102126.16
2023-05-02T11:10:49.503Z,102119.13
2023-05-02T11:13:16.120Z,102114.03
2023-05-02T11:15:42.491Z,102122.44
2023-05-02T11:18:13.034Z,102104.97
2023-05-02T11:20:41.290Z,102118.72
2023-05-02T11:23:24.669Z,102116.66
2023-05-02T11:26:00.395Z,102102.59
2023-05-02T11:28:48.584Z,102120.03
2023-05-02T11:31:27.658Z,102124.88
2023-05-02T11:34:02.015Z,102138.38
2023-05-02T11:36:29.737Z,102135.69
2023-05-02T11:38:56.519Z,102133.66
2023-05-02T11:41:23.000Z,102126.38
2023-05-02T11:44:03.671Z,102129.94
2023-05-02T11:46:30.770Z,102128.28
2023-05-02T11:48:57.403Z,102138.78
2023-05-02T11:51:24.056Z,102128.22
2023-05-02T11:53:50.609Z,102131.59
2023-05-02T11:56:24.645Z,102145.28
2023-05-02T11:59:04.373Z,102152.41
2023-05-02T12:01:31.379Z,102174.59
2023-05-02T12:04:08.394Z,102158.50
2023-05-02T12:06:35.451Z,102163.00
2023-05-02T12:09:10.772Z,102162.44
2023-05-02T12:11:38.584Z,102148.22
2023-05-02T12:14:06.718Z,102150.97
2023-05-02T12:16:33.553Z,102151.22
2023-05-02T12:19:01.111Z,102148.19
2023-05-02T12:21:29.785Z,102158.66
2023-05-02T12:23:57.107Z,102153.31
2023-05-02T12:26:25.667Z,102156.22
2023-05-02T12:28:54.709Z,102164.81
2023-05-02T12:31:21.869Z,102160.66
2023-05-02T12:33:50.096Z,102151.53
2023-05-02T12:36:17.590Z,102157.50
2023-05-02T12:38:52.936Z,102157.88
2023-05-02T12:41:30.079Z,102156.69
2023-05-02T12:43:56.696Z,102165.97
2023-05-02T12:46:23.029Z,102164.72
2023-05-02T12:49:01.437Z,102169.59
2023-05-02T12:51:28.769Z,102177.81
2023-05-02T12:53:55.309Z,102171.78
2023-05-02T12:56:22.156Z,102178.25
2023-05-02T12:58:49.221Z,102174.75
2023-05-02T13:01:15.686Z,102175.97
2023-05-02T13:03:42.886Z,102186.69
2023-05-02T13:06:09.896Z,102178.88
2023-05-02T13:08:36.437Z,102179.69
2023-05-02T13:11:03.904Z,102178.84
2023-05-02T13:13:30.613Z,102179.88
2023-05-02T13:15:56.986Z,102181.69
2023-05-02T13:18:23.698Z,102178.25
2023-05-02T13:20:50.033Z,102188.25
2023-05-02T13:23:16.944Z,102188.25
2023-05-02T13:25:43.462Z,102180.56
2023-05-02T13:28:09.860Z,102184.19
2023-05-02T13:30:36.206Z,102180.16
2023-05-02T13:33:02.648Z,102194.78
2023-05-02T13:35:29.266Z,102205.91
2023-05-02T13:37:55.709Z,102207.34
2023-05-02T13:40:22.144Z,102205.63
2023-05-02T13:42:48.527Z,102212.69
2023-05-02T13:45:16.623Z,102202.63
2023-05-02T13:47:43.153Z,102204.84
2023-05-02T13:50:09.733Z,102208.75
2023-05-02T13:52:36.069Z,102209.91
2023-05-02T13:55:02.384Z,102200.59
2023-05-02T13:57:28.730Z,102213.13
2023-05-02T13:59:55.131Z,102209.50
2023-05-02T14:02:22.444Z,102207.00
2023-05-02T14:04:48.810Z,102205.94
2023-05-02T14:07:15.195Z,102213.28
2023-05-02T14:09:41.526Z,102204.88
2023-05-02T14:12:08.221Z,102213.53
2023-05-02T14:14:36.179Z,102221.00
2023-05-02T14:17:02.753Z,102216.34
2023-05-02T14:19:29.062Z,102215.16
2023-05-02T14:21:55.538Z,102216.09
2023-05-02T14:24:21.851Z,102201.06
2023-05-02T14:26:48.484Z,102209.91
2023-05-02T14:29:14.832Z,102209.72
2023-05-02T14:31:41.241Z,102207.38
2023-05-02T14:34:08.970Z,102214.84
2023-05-02T14:36:35.584Z,102205.03
2023-05-02T14:39:01.948Z,102220.84
2023-05-02T14:41:28.309Z,102210.25
2023-05-02T14:43:54.778Z,102212.00
2023-05-02T14:46:21.248Z,102209.16
2023-05-02T14:48:47.893Z,102218.69
2023-05-02T14:51:14.302Z,102212.31
2023-05-02T14:53:40.692Z,102219.81
2023-05-02T14:56:11.967Z,102216.91
2023-05-02T14:58:38.591Z,102214.22
2023-05-02T15:01:05.025Z,102222.34
2023-05-02T15:03:31.468Z,102207.34
2023-05-02T15:05:57.941Z,102202.69
2023-05-02T15:08:25.190Z,102205.22
2023-05-02T15:10:51.530Z,102215.06
2023-05-02T15:13:18.055Z,102209.66
2023-05-02T15:15:46.367Z,102204.31
2023-05-02T15:18:12.726Z,102204.31
2023-05-02T15:20:39.067Z,102203.59
2023-05-02T15:23:05.442Z,102205.63
2023-05-02T15:25:31.895Z,102207.06
2023-05-02T15:27:58.236Z,102211.84
2023-05-02T15:30:25.010Z,102206.63
2023-05-02T15:32:51.445Z,102216.34
2023-05-02T15:35:17.781Z,102232.22
2023-05-02T15:37:44.113Z,102223.97
2023-05-02T15:40:10.830Z,102233.56
2023-05-02T15:42:38.083Z,102239.97
2023-05-02T15:45:04.667Z,102238.94
2023-05-02T15:47:31.128Z,102241.06
2023-05-02T15:50:03.324Z,102247.47
2023-05-02T15:52:29.956Z,102249.19
2023-05-02T15:54:56.394Z,102254.72
2023-05-02T15:57:22.998Z,102252.00
2023-05-02T15:59:49.280Z,102257.91
2023-05-02T16:02:15.607Z,102250.19
2023-05-02T16:04:45.285Z,102255.25
2023-05-02T16:07:11.754Z,102260.84
2023-05-02T16:09:39.609Z,102254.50
2023-05-02T16:12:07.231Z,102259.25
2023-05-02T16:14:33.661Z,102261.38
2023-05-02T16:17:00.013Z,102264.25
2023-05-02T16:19:26.310Z,102260.19
2023-05-02T16:21:52.699Z,102271.91
2023-05-02T16:24:19.084Z,102271.81
2023-05-02T16:26:46.584Z,102275.44
2023-05-02T16:29:12.905Z,102273.31
2023-05-02T16:31:39.323Z,102272.38
2023-05-02T16:34:05.912Z,102270.22
2023-05-02T16:36:33.228Z,102277.13
2023-05-02T16:38:59.550Z,102283.13
2023-05-02T16:41:25.857Z,102277.16
2023-05-02T16:43:52.330Z,102284.25
2023-05-02T16:46:18.746Z,102289.88
2023-05-02T16:48:45.207Z,102287.03
2023-05-02T16:51:11.545Z,102289.97
2023-05-02T16:53:37.865Z,102284.16
2023-05-02T16:56:04.264Z,102283.44
2023-05-02T16:58:30.779Z,102285.44
2023-05-02T17:00:58.813Z,102284.97
2023-05-02T17:03:25.225Z,102294.19
2023-05-02T17:05:51.593Z,102297.25
2023-05-02T17:08:17.967Z,102287.22
2023-05-02T17:10:51.373Z,102287.88
2023-05-02T17:13:17.920Z,102286.81
2023-05-02T17:15:44.333Z,102278.16
2023-05-02T17:18:11.534Z,102295.63
2023-05-02T17:20:38.195Z,102296.56
2023-05-02T17:23:05.474Z,102295.06
2023-05-02T17:25:31.816Z,102302.72
2023-05-02T17:27:58.318Z,102298.31
2023-05-02T17:30:25.186Z,102293.34
2023-05-02T17:32:51.621Z,102290.72
2023-05-02T17:35:17.926Z,102290.19
2023-05-02T17:37:44.313Z,102308.53
2023-05-02T17:40:10.989Z,102299.56
2023-05-02T17:42:37.301Z,102302.72
2023-05-02T17:45:04.868Z,102305.22
2023-05-02T17:47:31.327Z,102296.47
2023-05-02T17:49:57.657Z,102301.16
2023-05-02T17:52:23.987Z,102298.09
2023-05-02T17:54:50.332Z,102303.38
2023-05-02T17:57:16.785Z,102298.72
2023-05-02T17:59:43.206Z,102312.59
2023-05-02T18:02:10.439Z,102307.66
2023-05-02T18:04:37.280Z,102320.81
2023-05-02T18:07:05.717Z,102311.47
2023-05-02T18:09:32.567Z,102310.53
2023-05-02T18:12:00.514Z,102311.38
2023-05-02T18:14:26.995Z,102327.03
2023-05-02T18:16:53.439Z,102325.66
2023-05-02T18:19:19.914Z,102323.69
2023-05-02T18:21:46.400Z,102317.78
2023-05-02T18:24:13.152Z,102320.41
2023-05-02T18:26:39.645Z,102328.13
2023-05-02T18:29:06.199Z,102320.69
2023-05-02T18:31:32.900Z,102334.09
2023-05-02T18:33:59.365Z,102332.06
2023-05-02T18:36:28.496Z,102328.72
2023-05-02T18:38:56.320Z,102332.88
2023-05-02T18:41:22.876Z,102332.06
2023-05-02T18:43:49.388Z,102334.94
2023-05-02T18:46:15.994Z,102333.31
2023-05-02T18:48:42.596Z,102330.56
2023-05-02T18:51:09.575Z,102330.56
2023-05-02T18:53:36.325Z,102317.88
2023-05-02T18:56:02.890Z,102331.41
2023-05-02T18:58:29.365Z,102334.56
2023-05-02T19:00:55.800Z,102338.72
2023-05-02T19:03:23.766Z,102349.38
2023-05-02T19:05:51.378Z,102340.38
2023-05-02T19:08:17.980Z,102346.03
2023-05-02T19:10:44.449Z,102338.59
2023-05-02T19:13:14.580Z,102329.34
2023-05-02T19:15:43.127Z,102335.53
2023-05-02T19:18:09.674Z,102348.13
2023-05-02T19:20:55.058Z,102357.09
2023-05-02T19:23:21.600Z,102306.53
2023-05-02T19:25:48.173Z,102338.03
2023-05-02T19:28:17.709Z,102344.53
2023-05-02T19:30:47.466Z,102354.19
2023-05-02T19:33:14.087Z,102373.66
